East Pittsford, Vermont
Current Conditions -  °F | °C
As of 9:15 AM on Wednesday 28 Jan 2015 (Local Time) from K6B0 Reporting Station
Broken Clouds Broken Clouds  
Wind Chill: -6°   Ceiling: 12000
Heat Index: 10°   Visibility: 10mi
Dew Point: -2°   Wind: 13mph
Humidity: 59%   Direction: 360°N
Pressure: 30.09"   Gusts: 23mph
Location:  43.6369°N, 72.9375°W
Report Text: K6B0 281415Z AUTO 36011G20KT 10SM SCT090 BKN120 M12/M19 A3009 RMK AO2 T11251190
Loading
Personal Weather Stations






























Interactive Weather Map New forecast layout! Learn more

10-Day Weather Forecast

Advertisements
Track Severe Weather on mobile